ACV weather

California Redwood Coast-Humboldt County Airport
Arcata/Eureka, California, United States

Public forecast

Using degrees Fahrenheit for public forecast. Weather courtesy of forecast.io.

METAR (pilot weather report)

Retrieved 2019/05/21 09:32 UTC (27 minutes ago):

KACV 210932Z AUTO 14008KT 4SM RA BR SCT005 BKN012 OVC022 10/10 A2981 RMK AO2 RAB0856 P0009 T01000100

TAF (pilot weather forecast)

Retrieved 2019/05/21 06:00 UTC (4 hours ago):

TAF COR KACV 210559Z 2106/2206 17007KT P6SM -SHRA FEW016 BKN040 OVC045 FM210800 17020G30KT 5SM -SHRA SCT005 OVC020 FM211700 20008G18KT 2SM -RA BR OVC020 FM212200 25010KT 2SM -RA BR OVC007 FM220400 19004KT 2SM BR OVC003